Time;durP1;ratioP1;P1;durP2;ratioP2;P2;SDS_P1;SDS_P2;PMS_P1;PMS_P2;Temp;Humidity;BMP_temperature;BMP_pressure;BME280_temperature;BME280_humidity;BME280_pressure;Samples;Min_cycle;Max_cycle;Signal;HPM_P1;HPM_P2
2023/04/19 00:01:11;;;;;;;26.55;16.88;;;;;;;9.03;83.12;102588.19;4939984;28;20085;-96
2023/04/19 00:03:36;;;;;;;26.67;16.70;;;;;;;9.04;84.00;102595.22;4940170;28;20086;-96
2023/04/19 00:06:02;;;;;;;25.98;16.80;;;;;;;9.05;83.68;102592.69;4938134;29;20035;-95
2023/04/19 00:08:28;;;;;;;26.52;17.83;;;;;;;9.07;83.64;102589.25;4937255;28;20032;-96
2023/04/19 00:10:53;;;;;;;26.95;17.70;;;;;;;9.09;83.59;102582.47;4939186;28;20019;-96
2023/04/19 00:13:19;;;;;;;26.58;17.23;;;;;;;9.11;83.76;102591.25;4939125;28;20023;-96
2023/04/19 00:15:44;;;;;;;27.85;17.48;;;;;;;9.09;83.36;102578.16;4937896;28;20620;-96
2023/04/19 00:18:10;;;;;;;27.35;17.63;;;;;;;9.12;83.34;102573.13;4937810;29;20039;-95
2023/04/19 00:20:35;;;;;;;28.90;17.65;;;;;;;9.16;83.37;102585.50;4936666;28;20114;-96
2023/04/19 00:23:00;;;;;;;27.40;17.83;;;;;;;9.16;83.16;102580.28;4937034;28;20023;-96
2023/04/19 00:25:27;;;;;;;26.80;17.40;;;;;;;9.20;83.07;102578.78;4937250;29;20023;-96
2023/04/19 00:27:52;;;;;;;28.10;17.08;;;;;;;9.22;83.03;102575.47;4936890;29;20055;-96
2023/04/19 00:30:18;;;;;;;27.00;17.67;;;;;;;9.23;83.05;102563.34;4937757;29;20118;-96
2023/04/19 00:32:43;;;;;;;28.92;18.10;;;;;;;9.25;83.08;102563.44;4938941;28;20090;-96
2023/04/19 00:35:08;;;;;;;26.73;17.52;;;;;;;9.28;83.00;102576.59;4936929;29;20082;-96
2023/04/19 00:37:34;;;;;;;28.23;17.38;;;;;;;9.30;83.21;102574.97;4939978;28;20409;-96
2023/04/19 00:39:59;;;;;;;28.85;17.25;;;;;;;9.31;82.96;102579.38;4936241;28;20022;-96
2023/04/19 00:42:25;;;;;;;25.90;16.77;;;;;;;9.33;82.60;102573.47;4936355;28;20028;-96
2023/04/19 00:44:50;;;;;;;27.67;17.15;;;;;;;9.36;83.00;102583.16;4938656;28;20531;-95
2023/04/19 00:47:16;;;;;;;29.48;17.75;;;;;;;9.36;82.86;102577.94;4938611;28;20493;-96
2023/04/19 00:49:42;;;;;;;28.58;17.20;;;;;;;9.38;83.10;102566.81;4937080;29;20039;-96
2023/04/19 00:52:07;;;;;;;26.92;17.00;;;;;;;9.38;82.96;102577.22;4937905;28;20023;-96
2023/04/19 00:54:33;;;;;;;27.65;16.95;;;;;;;9.40;83.48;102569.50;4936732;28;20478;-96
2023/04/19 00:56:58;;;;;;;26.63;17.13;;;;;;;9.40;82.99;102580.81;4939724;28;20026;-96
2023/04/19 00:59:24;;;;;;;28.42;17.38;;;;;;;9.41;83.09;102568.69;4936169;28;20035;-96
2023/04/19 01:01:50;;;;;;;27.00;16.65;;;;;;;9.42;83.04;102578.28;4939505;29;20028;-96
2023/04/19 01:04:15;;;;;;;27.30;17.33;;;;;;;9.42;83.21;102575.69;4939283;29;20023;-96
2023/04/19 01:06:41;;;;;;;26.00;16.75;;;;;;;9.43;83.57;102568.75;4939885;28;20040;-96
2023/04/19 01:09:06;;;;;;;26.55;16.65;;;;;;;9.41;83.59;102566.06;4938242;28;20560;-96
2023/04/19 01:11:32;;;;;;;27.52;17.48;;;;;;;9.43;83.40;102569.69;4939210;28;20107;-96
2023/04/19 01:13:58;;;;;;;29.00;18.17;;;;;;;9.41;83.64;102566.06;4938847;28;20074;-96
2023/04/19 01:16:25;;;;;;;26.27;16.63;;;;;;;9.42;83.68;102567.00;4952492;28;21577;-95
2023/04/19 01:18:50;;;;;;;27.55;16.65;;;;;;;9.42;83.70;102567.00;4950680;28;20242;-96
2023/04/19 01:21:16;;;;;;;26.02;16.50;;;;;;;9.42;83.62;102567.00;4951791;28;20019;-96
2023/04/19 01:23:41;;;;;;;26.63;17.10;;;;;;;9.40;83.52;102559.09;4952157;28;20022;-96
2023/04/19 01:26:06;;;;;;;27.40;16.52;;;;;;;9.40;84.27;102572.13;4950699;28;20039;-96
2023/04/19 01:28:32;;;;;;;25.80;17.00;;;;;;;9.39;83.96;102567.72;4951319;28;20023;-96
2023/04/19 01:30:58;;;;;;;29.05;16.48;;;;;;;9.38;84.23;102564.22;4951993;28;20023;-96
2023/04/19 01:33:23;;;;;;;28.30;16.92;;;;;;;9.38;84.57;102569.44;4951868;28;20026;-95
2023/04/19 01:35:49;;;;;;;27.75;17.65;;;;;;;9.37;84.60;102570.22;4952660;28;20035;-96
2023/04/19 01:38:17;;;;;;;24.95;16.67;;;;;;;9.39;84.48;102567.72;4951694;28;20022;-96
2023/04/19 01:40:43;;;;;;;29.02;16.85;;;;;;;9.37;84.77;102572.81;4951253;28;20023;-96
2023/04/19 01:43:13;;;;;;;29.50;16.90;;;;;;;9.37;85.10;102569.31;4951659;28;20037;-96
2023/04/19 01:45:38;;;;;;;27.80;17.15;;;;;;;9.39;84.76;102571.19;4951534;28;20126;-96
2023/04/19 01:48:04;;;;;;;27.30;17.13;;;;;;;9.38;84.61;102564.22;4969630;28;20087;-96
2023/04/19 01:50:30;;;;;;;27.38;16.67;;;;;;;9.40;85.28;102564.31;4953213;28;20027;-96
2023/04/19 01:52:56;;;;;;;28.20;17.85;;;;;;;9.41;85.28;102566.06;4955421;28;20018;-95
2023/04/19 01:55:21;;;;;;;30.10;17.65;;;;;;;9.39;85.50;102560.78;4973127;28;20039;-96
2023/04/19 01:57:46;;;;;;;29.42;16.75;;;;;;;9.40;85.90;102553.91;4954571;28;20018;-96
2023/04/19 02:00:12;;;;;;;29.67;17.65;;;;;;;9.42;85.94;102557.47;4956065;28;20035;-96
2023/04/19 02:02:37;;;;;;;27.85;17.58;;;;;;;9.42;85.68;102552.25;4954660;28;20034;-96
2023/04/19 02:05:05;;;;;;;26.27;17.38;;;;;;;9.45;85.72;102546.34;4953819;28;20038;-96
2023/04/19 02:07:30;;;;;;;30.40;17.45;;;;;;;9.45;85.82;102543.75;4954634;28;20023;-96
2023/04/19 02:09:58;;;;;;;31.70;18.38;;;;;;;9.48;85.72;102541.31;4955218;28;20049;-96
2023/04/19 02:12:24;;;;;;;30.02;18.08;;;;;;;9.49;86.01;102538.78;4953755;28;20033;-96
2023/04/19 02:14:49;;;;;;;27.67;17.08;;;;;;;9.50;86.11;102532.78;4954645;28;20046;-96
2023/04/19 02:17:15;;;;;;;28.35;17.52;;;;;;;9.54;86.43;102547.75;4954006;28;20029;-96
2023/04/19 02:19:40;;;;;;;32.20;18.17;;;;;;;9.54;86.71;102537.34;4954035;28;20019;-96
2023/04/19 02:22:05;;;;;;;29.83;17.95;;;;;;;9.58;86.43;102535.78;4955347;28;20026;-96
2023/04/19 02:24:31;;;;;;;28.70;17.52;;;;;;;9.61;86.49;102537.69;4954997;28;20086;-96
2023/04/19 02:26:56;;;;;;;33.10;18.58;;;;;;;9.62;86.64;102539.47;4954626;28;20035;-96
2023/04/19 02:29:21;;;;;;;28.88;17.83;;;;;;;9.63;86.62;102542.16;4963637;28;20049;-96
2023/04/19 02:31:47;;;;;;;30.17;18.50;;;;;;;9.66;87.00;102541.41;4953904;28;20030;-96
2023/04/19 02:34:12;;;;;;;29.58;18.08;;;;;;;9.64;86.46;102533.53;4954622;28;20046;-96
2023/04/19 02:36:38;;;;;;;30.80;18.63;;;;;;;9.67;86.98;102535.41;4954268;28;20403;-96
2023/04/19 02:39:04;;;;;;;31.45;17.80;;;;;;;9.68;86.67;102537.19;4969427;28;20027;-96
2023/04/19 02:41:29;;;;;;;32.33;17.60;;;;;;;9.68;86.65;102538.09;4953146;28;20038;-96
2023/04/19 02:43:55;;;;;;;28.38;17.52;;;;;;;9.69;86.60;102536.38;4954436;28;20026;-96
2023/04/19 02:46:20;;;;;;;29.95;17.38;;;;;;;9.71;86.50;102534.75;4954867;28;20031;-96
2023/04/19 02:48:45;;;;;;;30.25;18.27;;;;;;;9.71;86.71;102539.97;4952459;28;20034;-96
2023/04/19 02:51:15;;;;;;;31.77;17.92;;;;;;;9.72;86.85;102541.78;4954009;28;20026;-96
2023/04/19 02:53:41;;;;;;;30.70;17.77;;;;;;;9.72;86.90;102541.78;4953574;28;20030;-96
2023/04/19 02:56:07;;;;;;;30.48;17.20;;;;;;;9.71;86.72;102542.56;4954100;28;20023;-96
2023/04/19 02:58:32;;;;;;;28.30;17.52;;;;;;;9.70;86.89;102545.97;4952810;28;20030;-96
2023/04/19 03:00:57;;;;;;;32.13;16.60;;;;;;;9.71;86.86;102545.19;4953825;28;20030;-96
2023/04/19 03:03:22;;;;;;;29.00;17.40;;;;;;;9.72;87.05;102550.47;4952966;28;20408;-96
2023/04/19 03:05:48;;;;;;;29.35;18.25;;;;;;;9.72;87.02;102541.78;4954021;28;20057;-96
2023/04/19 03:08:13;;;;;;;29.00;17.38;;;;;;;9.73;87.50;102548.75;4954044;28;20053;-96
2023/04/19 03:10:39;;;;;;;30.42;17.33;;;;;;;9.70;87.36;102549.50;4954445;28;20026;-96
2023/04/19 03:13:04;;;;;;;28.33;17.70;;;;;;;9.71;87.33;102546.06;4954267;28;20034;-96
2023/04/19 03:15:29;;;;;;;28.83;17.50;;;;;;;9.71;87.32;102547.78;4954429;28;20119;-96
2023/04/19 03:17:55;;;;;;;30.30;17.52;;;;;;;9.70;87.43;102543.38;4952788;28;20121;-96
2023/04/19 03:20:20;;;;;;;28.35;16.50;;;;;;;9.68;87.49;102537.19;4953721;28;20563;-96
2023/04/19 03:22:46;;;;;;;28.25;17.42;;;;;;;9.67;87.74;102543.22;4954907;28;20576;-96
2023/04/19 03:25:12;;;;;;;26.77;17.17;;;;;;;9.65;87.71;102545.72;4953602;28;20035;-96
2023/04/19 03:27:37;;;;;;;25.23;16.75;;;;;;;9.65;87.56;102545.72;4969976;28;20027;-96
2023/04/19 03:30:03;;;;;;;26.88;16.15;;;;;;;9.64;87.33;102535.25;4970135;28;20385;-96
2023/04/19 03:32:30;;;;;;;29.45;16.27;;;;;;;9.64;87.33;102537.84;4953365;28;20029;-96
2023/04/19 03:34:55;;;;;;;27.02;16.88;;;;;;;9.63;87.42;102536.03;4953765;28;20030;-96
2023/04/19 03:37:21;;;;;;;26.15;15.95;;;;;;;9.63;87.14;102531.75;4955120;28;20023;-96
2023/04/19 03:39:46;;;;;;;26.23;16.15;;;;;;;9.63;87.21;102530.84;4968341;28;20027;-96
2023/04/19 03:42:11;;;;;;;26.13;15.82;;;;;;;9.63;87.09;102533.44;4953389;28;20023;-96
2023/04/19 03:44:37;;;;;;;27.23;16.02;;;;;;;9.62;87.09;102535.16;4970799;28;20030;-96
2023/04/19 03:47:02;;;;;;;26.92;15.73;;;;;;;9.61;87.67;102537.69;4970445;28;20037;-96
2023/04/19 03:49:27;;;;;;;27.80;16.48;;;;;;;9.57;87.58;102527.09;4952750;28;20023;-96
2023/04/19 03:51:53;;;;;;;28.48;16.33;;;;;;;9.60;87.38;102528.06;4970341;28;20113;-96
2023/04/19 03:54:18;;;;;;;25.17;16.27;;;;;;;9.58;87.39;102533.19;4971197;28;20033;-96
2023/04/19 03:56:44;;;;;;;26.95;15.77;;;;;;;9.57;87.48;102526.19;4952205;28;20476;-96
2023/04/19 03:59:09;;;;;;;26.00;15.77;;;;;;;9.57;87.06;102534.91;4971943;28;20034;-96
2023/04/19 04:01:40;;;;;;;24.50;15.98;;;;;;;9.56;87.47;102538.31;4970362;28;20057;-96
2023/04/19 04:04:06;;;;;;;25.58;16.35;;;;;;;9.55;87.86;102539.13;4953539;28;20062;-96
2023/04/19 04:06:31;;;;;;;27.00;15.55;;;;;;;9.55;87.33;102544.31;4970378;28;20026;-96
2023/04/19 04:08:56;;;;;;;25.08;15.80;;;;;;;9.53;87.19;102532.03;4969350;28;20218;-96
2023/04/19 04:11:22;;;;;;;27.50;15.57;;;;;;;9.52;87.66;102538.94;4970457;28;20381;-96
2023/04/19 04:13:49;;;;;;;27.13;15.98;;;;;;;9.49;87.34;102538.78;4953507;28;20137;-96
2023/04/19 04:16:14;;;;;;;26.70;15.73;;;;;;;9.46;87.17;102529.91;4952081;28;20093;-96
2023/04/19 04:18:40;;;;;;;25.65;15.25;;;;;;;9.44;87.06;102526.34;4969729;28;20543;-96
2023/04/19 04:21:06;;;;;;;25.80;15.45;;;;;;;9.44;87.25;102529.81;4969495;28;20074;-96
2023/04/19 04:23:32;;;;;;;24.33;15.27;;;;;;;9.43;87.11;102532.34;4970814;28;20026;-96
2023/04/19 04:26:04;;;;;;;25.05;15.38;;;;;;;9.40;87.27;102538.28;4952597;28;20022;-96
2023/04/19 04:28:29;;;;;;;24.98;15.02;;;;;;;9.38;87.07;102534.69;4953449;28;20034;-96
2023/04/19 04:30:56;;;;;;;23.27;14.90;;;;;;;9.34;87.04;102538.84;4969574;28;20487;-96
2023/04/19 04:33:25;;;;;;;23.63;14.18;;;;;;;9.30;87.03;102535.94;4970450;28;20070;-96
2023/04/19 04:35:52;;;;;;;;;;;;;;;9.34;86.31;102545.72;4953338;28;20030;-96
2023/04/19 04:38:17;;;;;;;23.10;14.35;;;;;;;9.28;86.98;102542.78;4966955;28;19981;-96
2023/04/19 04:40:43;;;;;;;21.75;13.50;;;;;;;9.27;86.90;102538.38;4952035;28;20120;-96
2023/04/19 04:43:09;;;;;;;24.38;14.10;;;;;;;9.22;86.90;102546.84;4952766;28;20517;-96
2023/04/19 04:45:36;;;;;;;21.85;13.50;;;;;;;9.20;87.27;102543.25;4969129;28;20030;-96
2023/04/19 04:48:02;;;;;;;21.88;13.52;;;;;;;9.18;87.02;102546.56;4968076;28;20037;-96
2023/04/19 04:50:27;;;;;;;23.55;13.25;;;;;;;9.15;87.47;102544.72;4969669;28;20019;-96
2023/04/19 04:52:52;;;;;;;25.70;13.10;;;;;;;9.13;86.93;102548.03;4952467;28;20493;-96
2023/04/19 04:55:18;;;;;;;22.20;12.75;;;;;;;9.08;86.46;102542.56;4969913;28;20513;-96
2023/04/19 04:57:43;;;;;;;22.52;12.82;;;;;;;9.07;86.30;102548.56;4968280;28;20030;-96
2023/04/19 05:00:10;;;;;;;20.77;12.70;;;;;;;9.01;86.21;102556.91;4969765;28;20113;-96
2023/04/19 05:02:36;;;;;;;22.25;12.45;;;;;;;8.96;86.05;102557.44;4969213;28;20022;-96
2023/04/19 05:05:02;;;;;;;19.52;11.95;;;;;;;8.90;85.36;102554.50;4969675;28;20023;-96
2023/04/19 05:07:27;;;;;;;17.38;10.82;;;;;;;8.82;85.79;102551.44;4969002;28;20078;-96
2023/04/19 05:09:52;;;;;;;19.13;11.07;;;;;;;8.79;85.55;102566.88;4950507;28;20042;-96
2023/04/19 05:12:18;;;;;;;18.30;10.73;;;;;;;8.76;85.53;102561.50;4969537;28;20042;-96
2023/04/19 05:14:43;;;;;;;19.10;11.43;;;;;;;8.73;85.63;102567.41;4969815;28;20133;-96
2023/04/19 05:17:08;;;;;;;17.95;11.02;;;;;;;8.69;85.93;102565.44;4951100;28;20567;-96
2023/04/19 05:19:34;;;;;;;18.35;10.63;;;;;;;8.70;85.67;102572.41;4951546;28;20037;-96
2023/04/19 05:21:59;;;;;;;17.02;9.95;;;;;;;8.72;85.72;102568.22;4970436;28;20031;-96
2023/04/19 05:24:24;;;;;;;16.95;10.15;;;;;;;8.70;85.88;102567.22;4970318;28;20030;-96
2023/04/19 05:26:50;;;;;;;17.00;11.40;;;;;;;8.69;85.81;102570.66;4953662;28;20033;-95
2023/04/19 05:29:16;;;;;;;18.58;11.05;;;;;;;8.66;85.63;102565.25;4954389;28;20570;-95
2023/04/19 05:31:41;;;;;;;17.90;11.05;;;;;;;8.66;85.79;102565.25;4973439;28;20026;-96
2023/04/19 05:34:07;;;;;;;20.10;11.40;;;;;;;8.65;86.19;102563.47;4973497;28;20336;-96
2023/04/19 05:36:32;;;;;;;19.55;11.20;;;;;;;8.65;86.17;102566.94;4963852;28;20027;-96
2023/04/19 05:38:57;;;;;;;19.83;10.88;;;;;;;8.64;86.27;102566.88;4958781;28;20034;-96
2023/04/19 05:41:22;;;;;;;20.65;11.18;;;;;;;8.61;86.03;102572.78;4958794;28;20718;-96
2023/04/19 05:43:48;;;;;;;19.83;11.32;;;;;;;8.60;85.70;102565.75;4974023;28;20090;-96
2023/04/19 05:46:13;;;;;;;18.30;11.05;;;;;;;8.58;85.87;102567.41;4954964;28;20038;-96
2023/04/19 05:48:39;;;;;;;19.23;11.43;;;;;;;8.58;86.03;102574.31;4954417;28;20179;-96
2023/04/19 05:51:04;;;;;;;21.23;11.95;;;;;;;8.57;85.86;102567.31;4954535;28;20437;-96
2023/04/19 05:53:30;;;;;;;17.13;10.35;;;;;;;8.55;85.92;102564.63;4972758;28;20058;-96
2023/04/19 05:55:55;;;;;;;19.05;11.07;;;;;;;8.52;86.04;102562.72;4971948;28;20412;-96
2023/04/19 05:58:22;;;;;;;18.77;11.13;;;;;;;8.52;86.23;102565.31;4954161;28;20022;-95
2023/04/19 06:00:48;;;;;;;24.30;11.75;;;;;;;8.55;85.97;102566.34;4955069;28;20481;-96
2023/04/19 06:03:13;;;;;;;17.90;11.38;;;;;;;8.53;85.97;102564.53;4955056;28;20144;-96
2023/04/19 06:05:39;;;;;;;18.33;10.63;;;;;;;8.52;84.93;102565.31;4954855;28;20563;-96
2023/04/19 06:08:05;;;;;;;18.77;11.18;;;;;;;8.50;85.73;102568.63;4951925;28;20429;-96
2023/04/19 06:10:31;;;;;;;17.92;11.07;;;;;;;8.55;85.29;102571.53;4954683;28;20473;-96
2023/04/19 06:12:56;;;;;;;17.40;10.35;;;;;;;8.57;84.96;102564.72;4954989;28;20115;-96
2023/04/19 06:15:24;;;;;;;17.35;10.75;;;;;;;8.59;84.39;102568.28;4954687;28;20078;-96
2023/04/19 06:17:50;;;;;;;17.17;9.85;;;;;;;8.65;84.64;102569.56;4954698;28;20026;-96
2023/04/19 06:20:15;;;;;;;18.55;11.15;;;;;;;8.77;84.13;102569.38;4955093;28;20037;-96
2023/04/19 06:22:43;;;;;;;18.00;10.45;;;;;;;8.85;83.75;102572.44;4955064;28;20039;-96
2023/04/19 06:25:09;;;;;;;15.70;9.57;;;;;;;8.94;82.05;102574.69;4953696;28;20034;-96
2023/04/19 06:27:34;;;;;;;19.23;10.70;;;;;;;9.00;81.81;102568.13;4953153;28;20572;-96
2023/04/19 06:30:00;;;;;;;15.65;9.68;;;;;;;9.05;80.48;102574.50;4954776;28;20419;-96
2023/04/19 06:32:25;;;;;;;18.25;9.57;;;;;;;9.10;79.62;102581.66;4954325;28;20081;-96
2023/04/19 06:34:50;;;;;;;16.23;9.43;;;;;;;9.16;79.21;102569.88;4956448;28;20155;-96
2023/04/19 06:37:16;;;;;;;16.52;9.93;;;;;;;9.19;78.01;102571.78;4962298;28;20058;-96
2023/04/19 06:39:41;;;;;;;17.08;9.80;;;;;;;9.21;76.58;102570.16;4954090;28;21143;-96
2023/04/19 06:42:06;;;;;;;16.67;10.20;;;;;;;9.21;77.05;102562.34;4955105;28;20085;-96
2023/04/19 06:44:32;;;;;;;14.98;10.02;;;;;;;9.27;76.87;102561.81;4955015;28;20030;-96
2023/04/19 06:46:57;;;;;;;18.35;10.23;;;;;;;9.32;76.01;102556.06;4971294;28;20034;-96
2023/04/19 06:49:22;;;;;;;16.42;10.40;;;;;;;9.36;75.09;102559.72;4952982;28;20101;-96
2023/04/19 06:51:48;;;;;;;17.23;10.07;;;;;;;9.42;75.06;102560.06;4953672;28;20027;-96
2023/04/19 06:54:14;;;;;;;18.67;10.35;;;;;;;9.50;75.11;102564.00;4953805;28;20029;-96
2023/04/19 06:56:47;;;;;;;20.33;10.20;;;;;;;9.60;73.76;102556.69;4954717;28;20042;-96
2023/04/19 06:59:17;;;;;;;18.38;10.15;;;;;;;9.69;73.60;102557.19;4970127;28;20031;-96
2023/04/19 07:01:43;;;;;;;16.40;10.48;;;;;;;9.78;72.96;102554.22;4954411;28;20023;-96
2023/04/19 07:04:10;;;;;;;17.77;9.75;;;;;;;9.82;71.99;102558.75;4971894;28;20497;-96
2023/04/19 07:06:36;;;;;;;15.23;9.30;;;;;;;9.87;70.62;102563.41;4954244;28;20037;-96
2023/04/19 07:09:03;;;;;;;16.35;10.10;;;;;;;9.97;72.49;102561.31;4953964;28;20031;-96
2023/04/19 07:11:28;;;;;;;15.60;10.10;;;;;;;10.06;71.18;102560.06;4954824;28;20384;-96
2023/04/19 07:13:53;;;;;;;18.48;9.60;;;;;;;10.11;70.49;102562.94;4954524;28;20026;-96
2023/04/19 07:16:19;;;;;;;16.48;9.23;;;;;;;10.17;69.92;102565.00;4971665;28;20369;-96
2023/04/19 07:18:44;;;;;;;15.65;10.02;;;;;;;10.25;68.97;102561.97;4952510;28;20078;-96
2023/04/19 07:21:10;;;;;;;18.83;10.32;;;;;;;10.32;68.36;102562.28;4954062;28;20461;-96
2023/04/19 07:23:36;;;;;;;16.02;10.48;;;;;;;10.38;70.22;102562.63;4953980;28;20023;-96
2023/04/19 07:26:01;;;;;;;16.10;9.80;;;;;;;10.46;67.83;102556.13;4953875;28;20038;-96
2023/04/19 07:28:30;;;;;;;18.20;10.15;;;;;;;10.52;67.72;102555.53;4953498;28;20037;-96
2023/04/19 07:30:55;;;;;;;16.58;10.07;;;;;;;10.61;66.50;102559.50;4955379;28;20481;-96
2023/04/19 07:33:23;;;;;;;18.00;10.10;;;;;;;10.65;64.62;102557.06;4954256;28;20038;-96
2023/04/19 07:35:49;;;;;;;15.45;9.60;;;;;;;10.68;65.72;102557.22;4969753;28;20022;-96
2023/04/19 07:38:14;;;;;;;16.67;9.93;;;;;;;10.80;67.24;102560.44;4953537;28;20125;-96
2023/04/19 07:40:39;;;;;;;16.65;9.88;;;;;;;10.93;65.98;102555.03;4954086;28;20101;-96
2023/04/19 07:43:05;;;;;;;15.77;9.70;;;;;;;11.05;64.42;102569.47;4954242;28;20046;-96
2023/04/19 07:45:31;;;;;;;15.50;10.13;;;;;;;11.11;62.76;102560.25;4953414;28;20027;-96
2023/04/19 07:47:56;;;;;;;16.27;9.77;;;;;;;11.18;64.20;102556.25;4954209;28;20174;-96
2023/04/19 07:50:23;;;;;;;16.67;10.32;;;;;;;11.30;64.87;102559.44;4952700;28;20105;-96
2023/04/19 07:52:49;;;;;;;17.30;10.00;;;;;;;11.46;65.25;102552.34;4954092;28;20023;-96
2023/04/19 07:55:14;;;;;;;15.55;9.60;;;;;;;11.62;62.12;102549.63;4967593;28;20480;-96
2023/04/19 07:57:39;;;;;;;21.08;10.45;;;;;;;11.77;64.32;102556.38;4954317;28;20026;-96
2023/04/19 08:00:05;;;;;;;16.35;10.32;;;;;;;11.90;62.77;102550.88;4954536;28;20174;-96
2023/04/19 08:02:31;;;;;;;14.93;10.10;;;;;;;12.00;62.83;102553.13;4952520;28;20060;-96
2023/04/19 08:04:56;;;;;;;15.98;10.10;;;;;;;12.12;62.58;102546.66;4953497;28;20138;-96
2023/04/19 08:07:22;;;;;;;16.20;10.35;;;;;;;12.21;59.82;102547.09;4954386;28;20117;-96
2023/04/19 08:09:48;;;;;;;16.70;9.68;;;;;;;12.27;60.71;102541.25;4954116;28;20022;-96
2023/04/19 08:12:13;;;;;;;16.02;10.10;;;;;;;12.27;60.57;102544.75;4956700;28;20030;-96
2023/04/19 08:14:39;;;;;;;14.02;9.85;;;;;;;12.25;58.58;102546.41;4955088;28;20053;-96
2023/04/19 08:17:04;;;;;;;16.25;10.02;;;;;;;12.30;60.45;102542.25;4971388;28;20038;-96
2023/04/19 08:19:30;;;;;;;16.13;10.13;;;;;;;12.44;60.81;102537.66;4956926;28;20578;-96
2023/04/19 08:21:56;;;;;;;16.95;9.57;;;;;;;12.57;59.87;102536.44;4956098;28;20510;-96
2023/04/19 08:24:21;;;;;;;16.17;10.15;;;;;;;12.73;60.43;102530.16;4955114;28;20051;-96
2023/04/19 08:26:52;;;;;;;16.77;9.82;;;;;;;12.93;58.68;102533.56;4955214;28;20030;-96
2023/04/19 08:29:19;;;;;;;14.25;9.68;;;;;;;13.08;56.86;102532.41;4956955;28;20026;-96
2023/04/19 08:31:45;;;;;;;15.02;9.70;;;;;;;13.18;56.85;102539.81;4954030;28;20027;-96
2023/04/19 08:34:10;;;;;;;16.85;9.98;;;;;;;13.25;55.93;102538.31;4961713;28;20033;-96
2023/04/19 08:36:36;;;;;;;16.73;9.93;;;;;;;13.26;56.32;102541.00;4954890;28;20113;-96
2023/04/19 08:39:01;;;;;;;16.33;9.15;;;;;;;13.33;57.57;102532.56;4954547;28;20030;-96
2023/04/19 08:41:29;;;;;;;17.42;9.98;;;;;;;13.43;56.86;102527.72;4954066;28;20081;-96
2023/04/19 08:43:56;;;;;;;14.93;9.45;;;;;;;13.64;55.88;102528.53;4955537;28;20031;-96
2023/04/19 08:46:23;;;;;;;16.73;9.82;;;;;;;13.70;55.26;102528.78;4964874;28;20050;-96
2023/04/19 08:48:49;;;;;;;17.85;10.45;;;;;;;13.72;54.15;102527.09;4955605;28;20050;-96
2023/04/19 08:51:16;;;;;;;18.77;10.18;;;;;;;13.81;54.37;102530.91;4954222;28;20465;-96
2023/04/19 08:53:43;;;;;;;15.40;9.52;;;;;;;13.96;54.45;102515.78;4955985;28;20023;-96
2023/04/19 08:56:09;;;;;;;16.00;9.52;;;;;;;13.98;53.11;102519.31;4972657;28;20408;-96
2023/04/19 08:58:34;;;;;;;16.48;9.95;;;;;;;14.10;52.93;102524.13;4956478;28;20054;-96
2023/04/19 09:01:03;;;;;;;14.50;9.68;;;;;;;14.21;52.01;102516.66;4958665;28;20129;-96
2023/04/19 09:03:29;;;;;;;13.88;8.90;;;;;;;14.26;51.71;102512.44;4958298;28;20022;-96
2023/04/19 09:05:55;;;;;;;15.15;9.15;;;;;;;14.35;52.15;102520.66;4960068;28;20037;-96
2023/04/19 09:08:21;;;;;;;14.07;8.23;;;;;;;14.49;50.37;102512.38;4959863;28;20015;-96
2023/04/19 09:10:58;;;;;;;12.93;8.40;;;;;;;14.55;51.67;102517.81;4960619;28;20082;-96
2023/04/19 09:13:24;;;;;;;12.05;8.10;;;;;;;14.68;48.67;102522.66;4962244;28;20515;-96
2023/04/19 09:15:50;;;;;;;13.07;7.82;;;;;;;14.76;49.27;102528.19;4966072;28;20042;-96
2023/04/19 09:18:16;;;;;;;13.50;7.68;;;;;;;14.81;50.21;102520.47;4962963;28;20042;-96
2023/04/19 09:20:43;;;;;;;12.48;7.55;;;;;;;14.91;49.18;102525.16;4963094;28;20034;-96
2023/04/19 09:23:12;;;;;;;12.77;7.70;;;;;;;14.92;48.96;102521.72;4964640;28;20035;-96
2023/04/19 09:25:39;;;;;;;12.73;7.63;;;;;;;14.90;47.47;102516.41;4962286;28;20022;-96
2023/04/19 09:28:11;;;;;;;12.80;7.65;;;;;;;14.88;49.40;102518.06;4963089;28;20018;-96
2023/04/19 09:30:37;;;;;;;12.23;7.82;;;;;;;15.01;47.97;102514.13;4978532;28;20030;-96
2023/04/19 09:33:02;;;;;;;11.85;7.60;;;;;;;15.20;47.87;102530.47;4964916;28;20022;-96
2023/04/19 09:35:42;;;;;;;15.07;7.13;;;;;;;15.30;47.59;102525.53;4965098;28;20504;-96
2023/04/19 09:38:08;;;;;;;13.68;6.90;;;;;;;15.43;47.96;102529.44;4963020;28;20034;-96
2023/04/19 09:40:34;;;;;;;12.85;6.88;;;;;;;15.55;47.13;102526.28;4964803;28;20019;-96
2023/04/19 09:43:00;;;;;;;11.82;6.40;;;;;;;15.46;46.36;102526.00;4966902;28;20034;-96
2023/04/19 09:45:42;;;;;;;9.55;6.60;;;;;;;15.25;47.08;102527.16;4966281;28;20489;-96
2023/04/19 09:48:08;;;;;;;10.93;6.60;;;;;;;15.15;44.87;102517.19;4963671;28;20125;-96
2023/04/19 09:50:35;;;;;;;9.27;6.47;;;;;;;15.16;44.88;102512.81;4962215;28;20037;-96
2023/04/19 09:53:01;;;;;;;11.30;6.60;;;;;;;15.25;46.90;102508.75;4965057;28;20026;-96
2023/04/19 09:55:27;;;;;;;13.18;6.88;;;;;;;15.44;48.39;102514.59;4967325;28;20117;-96
2023/04/19 09:57:52;;;;;;;11.70;6.93;;;;;;;15.52;46.26;102515.69;4965763;28;20030;-96
2023/04/19 10:00:20;;;;;;;11.73;6.30;;;;;;;15.60;45.14;102508.94;4965653;28;20023;-96
2023/04/19 10:02:54;;;;;;;13.10;6.43;;;;;;;15.58;42.47;102514.97;4964407;28;20045;-96
2023/04/19 10:05:24;;;;;;;11.40;5.40;;;;;;;15.36;42.38;102511.69;4971454;28;20038;-96
2023/04/19 10:07:49;;;;;;;9.02;5.93;;;;;;;15.26;41.95;102509.63;4961112;28;20030;-96
2023/04/19 10:10:19;;;;;;;10.82;6.35;;;;;;;15.24;43.73;102513.97;4963986;28;20031;-96
2023/04/19 10:12:50;;;;;;;11.70;6.55;;;;;;;15.27;43.90;102508.81;4965443;28;20026;-96
2023/04/19 10:15:18;;;;;;;11.75;5.93;;;;;;;15.26;41.08;102507.91;4967249;28;20050;-96
2023/04/19 10:17:44;;;;;;;9.63;6.22;;;;;;;15.36;45.22;102502.94;4968508;28;20030;-96
2023/04/19 10:20:16;;;;;;;10.40;5.57;;;;;;;15.48;43.32;102506.84;4967394;28;20400;-96
2023/04/19 10:22:42;;;;;;;10.60;5.60;;;;;;;15.56;42.73;102517.56;4968321;28;20038;-96
2023/04/19 10:25:11;;;;;;;10.63;4.85;;;;;;;15.59;42.92;102511.53;4968302;28;20339;-96
2023/04/19 10:27:37;;;;;;;11.10;4.82;;;;;;;15.58;41.39;102496.59;4970847;28;20121;-96
2023/04/19 10:30:11;;;;;;;9.70;4.53;;;;;;;15.60;40.90;102514.19;4957342;28;20154;-96
2023/04/19 10:32:39;;;;;;;8.65;4.53;;;;;;;15.55;39.66;102507.00;4956560;28;20015;-96
2023/04/19 10:35:33;;;;;;;7.18;4.68;;;;;;;15.54;43.74;102510.47;4956924;28;20022;-96
2023/04/19 10:38:15;;;;;;;8.43;4.80;;;;;;;15.35;40.85;102507.31;4951178;28;20043;-96
2023/04/19 10:40:59;;;;;;;8.05;4.82;;;;;;;15.17;42.83;102502.38;4956818;28;20065;-96
2023/04/19 10:43:29;;;;;;;8.57;4.18;;;;;;;15.20;41.13;102497.22;4955394;28;20066;-96
2023/04/19 10:45:59;;;;;;;9.38;4.50;;;;;;;15.23;41.76;102485.91;4957537;28;20026;-96
2023/04/19 10:48:34;;;;;;;7.70;3.78;;;;;;;15.45;42.41;102495.31;4958988;28;20081;-96
2023/04/19 10:51:13;;;;;;;8.15;3.63;;;;;;;15.70;42.10;102481.19;4958265;28;20030;-96
2023/04/19 10:53:56;;;;;;;6.57;3.60;;;;;;;15.95;42.44;102487.19;4958563;28;20027;-96
2023/04/19 10:56:33;;;;;;;5.63;3.20;;;;;;;16.05;39.78;102489.22;4960376;28;20026;-96
2023/04/19 10:58:59;;;;;;;6.85;3.67;;;;;;;16.14;37.41;102480.69;4965697;28;20122;-96
2023/04/19 11:01:46;;;;;;;6.45;2.90;;;;;;;16.27;41.17;102479.25;4965945;28;20058;-96
2023/04/19 11:04:26;;;;;;;6.97;3.17;;;;;;;16.39;38.98;102468.16;4965974;28;20030;-96
2023/04/19 11:06:51;;;;;;;6.38;2.90;;;;;;;16.41;39.95;102474.34;4977612;28;20026;-96
2023/04/19 11:09:35;;;;;;;7.03;3.40;;;;;;;16.48;41.76;102473.66;4965322;28;20041;-96
2023/04/19 11:12:02;;;;;;;6.57;2.88;;;;;;;16.55;36.42;102469.44;4967214;28;20460;-96
2023/04/19 11:14:36;;;;;;;7.25;3.53;;;;;;;16.48;38.14;102478.91;4976774;28;20043;-96